sensor_id;sensor_type;location;lat;lon;timestamp;pressure;altitude;pressure_sealevel;temperature;humidity
20930;BME280;21895;47.072;15.132;2022-08-01T00:00:48;96727.00;;;19.06;63.45
20930;BME280;21895;47.072;15.132;2022-08-01T00:03:17;96733.00;;;19.05;64.23
20930;BME280;21895;47.072;15.132;2022-08-01T00:05:43;96725.00;;;19.01;63.74
20930;BME280;21895;47.072;15.132;2022-08-01T00:08:11;96723.00;;;18.99;64.17
20930;BME280;21895;47.072;15.132;2022-08-01T00:10:38;96713.00;;;18.96;64.14
20930;BME280;21895;47.072;15.132;2022-08-01T00:13:04;96719.00;;;18.96;64.27
20930;BME280;21895;47.072;15.132;2022-08-01T00:15:31;96720.00;;;18.64;65.10
20930;BME280;21895;47.072;15.132;2022-08-01T00:17:58;96704.00;;;18.58;65.45
20930;BME280;21895;47.072;15.132;2022-08-01T00:20:25;96712.00;;;18.64;65.36
20930;BME280;21895;47.072;15.132;2022-08-01T00:22:51;96713.00;;;18.69;65.12
20930;BME280;21895;47.072;15.132;2022-08-01T00:25:18;96714.00;;;18.76;65.18
20930;BME280;21895;47.072;15.132;2022-08-01T00:27:45;96713.00;;;18.80;64.45
20930;BME280;21895;47.072;15.132;2022-08-01T00:30:13;96706.00;;;18.77;64.56
20930;BME280;21895;47.072;15.132;2022-08-01T00:32:44;96704.00;;;18.78;64.33
20930;BME280;21895;47.072;15.132;2022-08-01T00:35:11;96700.00;;;18.79;64.21
20930;BME280;21895;47.072;15.132;2022-08-01T00:37:37;96708.00;;;18.72;64.46
20930;BME280;21895;47.072;15.132;2022-08-01T00:40:05;96701.00;;;18.64;64.76
20930;BME280;21895;47.072;15.132;2022-08-01T00:42:32;96701.00;;;18.66;64.43
20930;BME280;21895;47.072;15.132;2022-08-01T00:44:59;96700.00;;;18.67;64.66
20930;BME280;21895;47.072;15.132;2022-08-01T00:47:25;96700.00;;;18.70;64.35
20930;BME280;21895;47.072;15.132;2022-08-01T00:49:52;96698.00;;;18.66;64.20
20930;BME280;21895;47.072;15.132;2022-08-01T00:52:20;96696.00;;;18.70;64.70
20930;BME280;21895;47.072;15.132;2022-08-01T00:54:47;96702.00;;;18.63;67.15
20930;BME280;21895;47.072;15.132;2022-08-01T00:57:14;96694.00;;;18.31;68.61
20930;BME280;21895;47.072;15.132;2022-08-01T00:59:41;96701.00;;;18.17;68.40
20930;BME280;21895;47.072;15.132;2022-08-01T01:02:08;96695.00;;;18.09;66.92
20930;BME280;21895;47.072;15.132;2022-08-01T01:04:42;96700.00;;;18.13;66.72
20930;BME280;21895;47.072;15.132;2022-08-01T01:08:19;96693.00;;;18.20;67.33
20930;BME280;21895;47.072;15.132;2022-08-01T01:10:56;96696.00;;;18.23;66.25
20930;BME280;21895;47.072;15.132;2022-08-01T01:18:13;96694.00;;;18.08;66.30
20930;BME280;21895;47.072;15.132;2022-08-01T01:20:45;96695.00;;;18.16;65.69
20930;BME280;21895;47.072;15.132;2022-08-01T01:24:55;96695.00;;;18.26;65.43
20930;BME280;21895;47.072;15.132;2022-08-01T01:29:31;96699.00;;;18.17;66.05
20930;BME280;21895;47.072;15.132;2022-08-01T01:32:44;96687.00;;;17.95;66.33
20930;BME280;21895;47.072;15.132;2022-08-01T01:35:22;96694.00;;;18.12;66.07
20930;BME280;21895;47.072;15.132;2022-08-01T01:37:56;96693.00;;;18.27;65.85
20930;BME280;21895;47.072;15.132;2022-08-01T01:40:26;96690.00;;;18.33;65.14
20930;BME280;21895;47.072;15.132;2022-08-01T01:42:55;96699.00;;;18.32;67.37
20930;BME280;21895;47.072;15.132;2022-08-01T01:45:27;96689.00;;;18.19;66.25
20930;BME280;21895;47.072;15.132;2022-08-01T01:47:56;96682.00;;;18.25;66.02
20930;BME280;21895;47.072;15.132;2022-08-01T01:50:24;96683.00;;;18.29;65.56
20930;BME280;21895;47.072;15.132;2022-08-01T01:52:53;96690.00;;;18.39;65.59
20930;BME280;21895;47.072;15.132;2022-08-01T01:55:23;96668.00;;;18.26;65.59
20930;BME280;21895;47.072;15.132;2022-08-01T01:57:51;96677.00;;;18.30;66.88
20930;BME280;21895;47.072;15.132;2022-08-01T02:00:19;96672.00;;;18.20;68.56
20930;BME280;21895;47.072;15.132;2022-08-01T02:02:48;96668.00;;;17.95;69.72
20930;BME280;21895;47.072;15.132;2022-08-01T02:05:16;96670.00;;;17.92;70.56
20930;BME280;21895;47.072;15.132;2022-08-01T02:07:44;96667.00;;;17.68;72.03
20930;BME280;21895;47.072;15.132;2022-08-01T02:10:17;96667.00;;;17.66;72.73
20930;BME280;21895;47.072;15.132;2022-08-01T02:12:47;96669.00;;;17.53;73.33
20930;BME280;21895;47.072;15.132;2022-08-01T02:15:18;96660.00;;;17.56;70.22
20930;BME280;21895;47.072;15.132;2022-08-01T02:17:49;96664.00;;;17.79;67.89
20930;BME280;21895;47.072;15.132;2022-08-01T02:20:17;96654.00;;;17.94;67.41
20930;BME280;21895;47.072;15.132;2022-08-01T02:23:16;96663.00;;;17.96;67.44
20930;BME280;21895;47.072;15.132;2022-08-01T02:25:52;96670.00;;;18.17;66.39
20930;BME280;21895;47.072;15.132;2022-08-01T02:28:47;96675.00;;;18.17;66.20
20930;BME280;21895;47.072;15.132;2022-08-01T02:31:20;96670.00;;;17.97;66.67
20930;BME280;21895;47.072;15.132;2022-08-01T02:33:58;96664.00;;;18.17;66.23
20930;BME280;21895;47.072;15.132;2022-08-01T02:36:28;96654.00;;;18.21;65.61
20930;BME280;21895;47.072;15.132;2022-08-01T02:39:03;96661.00;;;18.30;65.26
20930;BME280;21895;47.072;15.132;2022-08-01T02:41:37;96665.00;;;18.30;67.38
20930;BME280;21895;47.072;15.132;2022-08-01T02:44:09;96663.00;;;18.21;68.69
20930;BME280;21895;47.072;15.132;2022-08-01T02:46:43;96670.00;;;18.10;69.20
20930;BME280;21895;47.072;15.132;2022-08-01T02:49:13;96672.00;;;17.90;70.18
20930;BME280;21895;47.072;15.132;2022-08-01T02:51:41;96660.00;;;17.75;71.22
20930;BME280;21895;47.072;15.132;2022-08-01T02:54:11;96668.00;;;17.75;71.29
20930;BME280;21895;47.072;15.132;2022-08-01T02:56:42;96664.00;;;17.69;72.35
20930;BME280;21895;47.072;15.132;2022-08-01T02:59:15;96661.00;;;17.66;72.55
20930;BME280;21895;47.072;15.132;2022-08-01T03:01:49;96664.00;;;17.66;73.27
20930;BME280;21895;47.072;15.132;2022-08-01T03:04:17;96666.00;;;17.74;69.47
20930;BME280;21895;47.072;15.132;2022-08-01T03:06:47;96666.00;;;18.00;67.34
20930;BME280;21895;47.072;15.132;2022-08-01T03:09:15;96663.00;;;18.15;66.35
20930;BME280;21895;47.072;15.132;2022-08-01T03:11:45;96667.00;;;18.21;65.92
20930;BME280;21895;47.072;15.132;2022-08-01T03:14:13;96669.00;;;18.25;65.45
20930;BME280;21895;47.072;15.132;2022-08-01T03:16:44;96669.00;;;18.30;65.45
20930;BME280;21895;47.072;15.132;2022-08-01T03:19:13;96665.00;;;18.28;65.85
20930;BME280;21895;47.072;15.132;2022-08-01T03:21:43;96663.00;;;18.37;65.42
20930;BME280;21895;47.072;15.132;2022-08-01T03:24:11;96663.00;;;18.35;65.96
20930;BME280;21895;47.072;15.132;2022-08-01T03:26:41;96665.00;;;18.40;66.25
20930;BME280;21895;47.072;15.132;2022-08-01T03:29:23;96656.00;;;18.29;66.55
20930;BME280;21895;47.072;15.132;2022-08-01T03:31:51;96657.00;;;18.35;65.46
20930;BME280;21895;47.072;15.132;2022-08-01T03:34:18;96654.00;;;18.36;65.82
20930;BME280;21895;47.072;15.132;2022-08-01T03:36:59;96667.00;;;18.32;67.45
20930;BME280;21895;47.072;15.132;2022-08-01T03:39:34;96671.00;;;18.24;68.20
20930;BME280;21895;47.072;15.132;2022-08-01T03:42:17;96670.00;;;18.34;67.63
20930;BME280;21895;47.072;15.132;2022-08-01T03:45:08;96676.00;;;18.57;65.78
20930;BME280;21895;47.072;15.132;2022-08-01T03:47:44;96666.00;;;18.53;65.92
20930;BME280;21895;47.072;15.132;2022-08-01T03:50:14;96674.00;;;18.44;65.84
20930;BME280;21895;47.072;15.132;2022-08-01T03:52:46;96665.00;;;18.26;67.67
20930;BME280;21895;47.072;15.132;2022-08-01T03:55:15;96668.00;;;17.91;68.85
20930;BME280;21895;47.072;15.132;2022-08-01T03:57:45;96669.00;;;17.58;70.63
20930;BME280;21895;47.072;15.132;2022-08-01T04:00:13;96670.00;;;17.27;71.99
20930;BME280;21895;47.072;15.132;2022-08-01T04:02:49;96663.00;;;17.24;72.99
20930;BME280;21895;47.072;15.132;2022-08-01T04:05:17;96667.00;;;17.27;73.61
20930;BME280;21895;47.072;15.132;2022-08-01T04:07:52;96671.00;;;17.29;73.60
20930;BME280;21895;47.072;15.132;2022-08-01T04:10:25;96671.00;;;17.24;73.62
20930;BME280;21895;47.072;15.132;2022-08-01T04:12:52;96684.00;;;17.30;74.01
20930;BME280;21895;47.072;15.132;2022-08-01T04:15:19;96686.00;;;17.40;74.17
20930;BME280;21895;47.072;15.132;2022-08-01T04:17:47;96682.00;;;17.62;71.23
20930;BME280;21895;47.072;15.132;2022-08-01T04:20:14;96679.00;;;17.70;70.31
20930;BME280;21895;47.072;15.132;2022-08-01T04:22:42;96677.00;;;17.74;70.64
20930;BME280;21895;47.072;15.132;2022-08-01T04:25:22;96676.00;;;17.90;71.35
20930;BME280;21895;47.072;15.132;2022-08-01T04:27:53;96671.00;;;17.82;72.12
20930;BME280;21895;47.072;15.132;2022-08-01T04:30:27;96676.00;;;17.83;71.92
20930;BME280;21895;47.072;15.132;2022-08-01T04:32:59;96679.00;;;17.89;71.28
20930;BME280;21895;47.072;15.132;2022-08-01T04:35:27;96672.00;;;17.79;72.34
20930;BME280;21895;47.072;15.132;2022-08-01T04:38:33;96677.00;;;17.86;72.25
20930;BME280;21895;47.072;15.132;2022-08-01T04:41:02;96683.00;;;18.02;71.72
20930;BME280;21895;47.072;15.132;2022-08-01T04:43:37;96680.00;;;18.14;70.73
20930;BME280;21895;47.072;15.132;2022-08-01T04:46:07;96687.00;;;18.42;68.93
20930;BME280;21895;47.072;15.132;2022-08-01T04:48:37;96690.00;;;18.66;67.54
20930;BME280;21895;47.072;15.132;2022-08-01T04:51:12;96687.00;;;19.03;67.28
20930;BME280;21895;47.072;15.132;2022-08-01T04:53:39;96692.00;;;19.49;66.70
20930;BME280;21895;47.072;15.132;2022-08-01T04:56:06;96693.00;;;19.59;66.95
20930;BME280;21895;47.072;15.132;2022-08-01T04:58:33;96686.00;;;19.49;65.77
20930;BME280;21895;47.072;15.132;2022-08-01T05:01:00;96681.00;;;19.68;64.09
20930;BME280;21895;47.072;15.132;2022-08-01T05:03:26;96673.00;;;19.65;65.50
20930;BME280;21895;47.072;15.132;2022-08-01T05:05:53;96672.00;;;19.62;66.46
20930;BME280;21895;47.072;15.132;2022-08-01T05:08:20;96679.00;;;19.50;67.24
20930;BME280;21895;47.072;15.132;2022-08-01T05:10:47;96668.00;;;19.36;66.93
20930;BME280;21895;47.072;15.132;2022-08-01T05:13:13;96674.00;;;19.29;68.27
20930;BME280;21895;47.072;15.132;2022-08-01T05:15:40;96676.00;;;19.34;67.78
20930;BME280;21895;47.072;15.132;2022-08-01T05:18:07;96675.00;;;19.40;70.35
20930;BME280;21895;47.072;15.132;2022-08-01T05:20:34;96679.00;;;19.42;69.59
20930;BME280;21895;47.072;15.132;2022-08-01T05:23:01;96675.00;;;19.40;70.36
20930;BME280;21895;47.072;15.132;2022-08-01T05:25:29;96676.00;;;19.41;65.97
20930;BME280;21895;47.072;15.132;2022-08-01T05:28:24;96675.00;;;19.43;65.57
20930;BME280;21895;47.072;15.132;2022-08-01T05:30:50;96674.00;;;19.51;65.83
20930;BME280;21895;47.072;15.132;2022-08-01T05:33:20;96671.00;;;19.79;65.11
20930;BME280;21895;47.072;15.132;2022-08-01T05:35:47;96666.00;;;19.93;63.68
20930;BME280;21895;47.072;15.132;2022-08-01T05:38:15;96671.00;;;20.13;63.17
20930;BME280;21895;47.072;15.132;2022-08-01T05:40:42;96669.00;;;20.27;63.83
20930;BME280;21895;47.072;15.132;2022-08-01T05:43:08;96671.00;;;20.24;67.07
20930;BME280;21895;47.072;15.132;2022-08-01T05:45:35;96672.00;;;20.22;66.22
20930;BME280;21895;47.072;15.132;2022-08-01T05:48:02;96670.00;;;20.25;64.17
20930;BME280;21895;47.072;15.132;2022-08-01T05:50:28;96673.00;;;20.31;64.57
20930;BME280;21895;47.072;15.132;2022-08-01T05:52:55;96681.00;;;20.45;62.78
20930;BME280;21895;47.072;15.132;2022-08-01T05:55:21;96679.00;;;20.53;63.38
20930;BME280;21895;47.072;15.132;2022-08-01T05:57:48;96677.00;;;20.70;63.50
20930;BME280;21895;47.072;15.132;2022-08-01T06:00:15;96679.00;;;20.69;62.79
20930;BME280;21895;47.072;15.132;2022-08-01T06:02:42;96682.00;;;20.71;62.62
20930;BME280;21895;47.072;15.132;2022-08-01T06:05:10;96686.00;;;20.91;62.13
20930;BME280;21895;47.072;15.132;2022-08-01T06:07:40;96683.00;;;20.94;62.18
20930;BME280;21895;47.072;15.132;2022-08-01T06:10:08;96685.00;;;20.96;62.39
20930;BME280;21895;47.072;15.132;2022-08-01T06:12:35;96693.00;;;21.08;62.88
20930;BME280;21895;47.072;15.132;2022-08-01T06:15:05;96694.00;;;21.01;62.79
20930;BME280;21895;47.072;15.132;2022-08-01T06:17:32;96684.00;;;20.90;62.79
20930;BME280;21895;47.072;15.132;2022-08-01T06:19:59;96682.00;;;20.88;62.80
20930;BME280;21895;47.072;15.132;2022-08-01T06:22:26;96684.00;;;21.02;63.02
20930;BME280;21895;47.072;15.132;2022-08-01T06:24:52;96679.00;;;21.00;63.18
20930;BME280;21895;47.072;15.132;2022-08-01T06:27:19;96683.00;;;21.07;64.53
20930;BME280;21895;47.072;15.132;2022-08-01T06:29:48;96680.00;;;21.23;65.00
20930;BME280;21895;47.072;15.132;2022-08-01T06:32:21;96683.00;;;21.31;65.81
20930;BME280;21895;47.072;15.132;2022-08-01T06:34:54;96685.00;;;21.25;66.09
20930;BME280;21895;47.072;15.132;2022-08-01T06:37:21;96683.00;;;21.15;66.71
20930;BME280;21895;47.072;15.132;2022-08-01T06:39:48;96692.00;;;21.27;66.92
20930;BME280;21895;47.072;15.132;2022-08-01T06:42:15;96691.00;;;21.18;66.92
20930;BME280;21895;47.072;15.132;2022-08-01T06:44:42;96695.00;;;21.31;66.95
20930;BME280;21895;47.072;15.132;2022-08-01T06:47:08;96690.00;;;21.28;67.32
20930;BME280;21895;47.072;15.132;2022-08-01T06:49:35;96688.00;;;21.65;66.79
20930;BME280;21895;47.072;15.132;2022-08-01T06:52:02;96682.00;;;22.16;62.83
20930;BME280;21895;47.072;15.132;2022-08-01T06:54:30;96679.00;;;22.31;62.58
20930;BME280;21895;47.072;15.132;2022-08-01T06:56:57;96679.00;;;22.62;61.44
20930;BME280;21895;47.072;15.132;2022-08-01T06:59:23;96670.00;;;22.95;60.83
20930;BME280;21895;47.072;15.132;2022-08-01T07:01:50;96673.00;;;23.57;59.25
20930;BME280;21895;47.072;15.132;2022-08-01T07:04:16;96676.00;;;23.52;59.59
20930;BME280;21895;47.072;15.132;2022-08-01T07:06:43;96668.00;;;23.18;61.07
20930;BME280;21895;47.072;15.132;2022-08-01T07:09:09;96667.00;;;22.81;59.83
20930;BME280;21895;47.072;15.132;2022-08-01T07:11:41;96663.00;;;22.78;61.29
20930;BME280;21895;47.072;15.132;2022-08-01T07:14:07;96670.00;;;23.17;60.66
20930;BME280;21895;47.072;15.132;2022-08-01T07:16:34;96664.00;;;23.51;59.59
20930;BME280;21895;47.072;15.132;2022-08-01T07:19:00;96658.00;;;23.72;58.49
20930;BME280;21895;47.072;15.132;2022-08-01T07:21:27;96648.00;;;23.86;58.51
20930;BME280;21895;47.072;15.132;2022-08-01T07:24:12;96648.00;;;23.95;58.41
20930;BME280;21895;47.072;15.132;2022-08-01T07:26:47;96647.00;;;24.30;56.04
20930;BME280;21895;47.072;15.132;2022-08-01T07:29:18;96641.00;;;24.25;56.12
20930;BME280;21895;47.072;15.132;2022-08-01T07:31:45;96644.00;;;24.63;55.63
20930;BME280;21895;47.072;15.132;2022-08-01T07:34:11;96653.00;;;25.19;53.18
20930;BME280;21895;47.072;15.132;2022-08-01T07:36:38;96644.00;;;25.36;52.16
20930;BME280;21895;47.072;15.132;2022-08-01T07:39:05;96638.00;;;25.55;52.67
20930;BME280;21895;47.072;15.132;2022-08-01T07:41:34;96644.00;;;25.66;51.83
20930;BME280;21895;47.072;15.132;2022-08-01T07:44:31;96644.00;;;26.09;52.28
20930;BME280;21895;47.072;15.132;2022-08-01T07:46:58;96641.00;;;26.52;52.03
20930;BME280;21895;47.072;15.132;2022-08-01T07:49:24;96640.00;;;26.90;51.50
20930;BME280;21895;47.072;15.132;2022-08-01T07:51:51;96642.00;;;27.11;49.71
20930;BME280;21895;47.072;15.132;2022-08-01T07:54:31;96634.00;;;27.13;49.71
20930;BME280;21895;47.072;15.132;2022-08-01T07:57:00;96639.00;;;27.73;48.42
20930;BME280;21895;47.072;15.132;2022-08-01T07:59:27;96631.00;;;28.16;46.27
20930;BME280;21895;47.072;15.132;2022-08-01T08:01:53;96636.00;;;28.47;44.88
20930;BME280;21895;47.072;15.132;2022-08-01T08:04:20;96639.00;;;28.67;44.79
20930;BME280;21895;47.072;15.132;2022-08-01T08:06:47;96626.00;;;28.95;42.69
20930;BME280;21895;47.072;15.132;2022-08-01T08:09:15;96623.00;;;29.30;42.13
20930;BME280;21895;47.072;15.132;2022-08-01T08:11:46;96627.00;;;29.82;42.33
20930;BME280;21895;47.072;15.132;2022-08-01T08:14:15;96618.00;;;30.36;41.37
20930;BME280;21895;47.072;15.132;2022-08-01T08:16:43;96615.00;;;30.53;39.87
20930;BME280;21895;47.072;15.132;2022-08-01T08:19:10;96626.00;;;30.72;39.98
20930;BME280;21895;47.072;15.132;2022-08-01T08:21:37;96621.00;;;30.52;38.56
20930;BME280;21895;47.072;15.132;2022-08-01T08:24:04;96623.00;;;30.28;39.86
20930;BME280;21895;47.072;15.132;2022-08-01T08:27:00;96623.00;;;30.07;40.00
20930;BME280;21895;47.072;15.132;2022-08-01T08:29:28;96619.00;;;30.22;39.36
20930;BME280;21895;47.072;15.132;2022-08-01T08:31:57;96622.00;;;30.21;39.76
20930;BME280;21895;47.072;15.132;2022-08-01T08:34:24;96619.00;;;30.22;39.33
20930;BME280;21895;47.072;15.132;2022-08-01T08:36:52;96623.00;;;30.37;37.50
20930;BME280;21895;47.072;15.132;2022-08-01T08:39:21;96619.00;;;30.48;39.20
20930;BME280;21895;47.072;15.132;2022-08-01T08:41:49;96623.00;;;30.69;39.01
20930;BME280;21895;47.072;15.132;2022-08-01T08:44:17;96616.00;;;30.96;37.63
20930;BME280;21895;47.072;15.132;2022-08-01T08:46:47;96627.00;;;30.91;38.55
20930;BME280;21895;47.072;15.132;2022-08-01T08:49:26;96626.00;;;31.25;36.19
20930;BME280;21895;47.072;15.132;2022-08-01T08:52:03;96631.00;;;31.51;35.74
20930;BME280;21895;47.072;15.132;2022-08-01T08:54:32;96636.00;;;31.34;37.37
20930;BME280;21895;47.072;15.132;2022-08-01T08:57:00;96623.00;;;31.13;36.18
20930;BME280;21895;47.072;15.132;2022-08-01T08:59:27;96632.00;;;31.03;37.97
20930;BME280;21895;47.072;15.132;2022-08-01T09:01:55;96633.00;;;31.11;38.04
20930;BME280;21895;47.072;15.132;2022-08-01T09:04:23;96629.00;;;31.22;38.90
20930;BME280;21895;47.072;15.132;2022-08-01T09:06:53;96633.00;;;31.20;39.53
20930;BME280;21895;47.072;15.132;2022-08-01T09:09:20;96639.00;;;31.21;40.62
20930;BME280;21895;47.072;15.132;2022-08-01T09:11:47;96630.00;;;31.12;39.82
20930;BME280;21895;47.072;15.132;2022-08-01T09:14:25;96636.00;;;31.11;38.72
20930;BME280;21895;47.072;15.132;2022-08-01T09:17:03;96632.00;;;31.40;40.10
20930;BME280;21895;47.072;15.132;2022-08-01T09:19:57;96630.00;;;31.60;38.17
20930;BME280;21895;47.072;15.132;2022-08-01T09:22:25;96624.00;;;31.77;39.36
20930;BME280;21895;47.072;15.132;2022-08-01T09:25:52;96639.00;;;32.04;39.44
20930;BME280;21895;47.072;15.132;2022-08-01T09:28:29;96638.00;;;32.36;37.42
20930;BME280;21895;47.072;15.132;2022-08-01T09:31:05;96640.00;;;32.53;37.19
20930;BME280;21895;47.072;15.132;2022-08-01T09:35:28;96638.00;;;32.71;37.62
20930;BME280;21895;47.072;15.132;2022-08-01T09:38:21;96631.00;;;32.92;36.02
20930;BME280;21895;47.072;15.132;2022-08-01T09:40:57;96626.00;;;32.99;35.06
20930;BME280;21895;47.072;15.132;2022-08-01T09:43:30;96622.00;;;33.04;35.89
20930;BME280;21895;47.072;15.132;2022-08-01T09:46:10;96620.00;;;33.20;34.72
20930;BME280;21895;47.072;15.132;2022-08-01T09:49:00;96627.00;;;33.36;33.82
20930;BME280;21895;47.072;15.132;2022-08-01T09:51:36;96621.00;;;32.96;34.91
20930;BME280;21895;47.072;15.132;2022-08-01T09:54:33;96624.00;;;32.25;37.18
20930;BME280;21895;47.072;15.132;2022-08-01T09:57:16;96620.00;;;32.68;36.89
20930;BME280;21895;47.072;15.132;2022-08-01T09:59:47;96623.00;;;32.60;35.26
20930;BME280;21895;47.072;15.132;2022-08-01T10:02:34;96626.00;;;32.84;34.39
20930;BME280;21895;47.072;15.132;2022-08-01T10:05:06;96619.00;;;32.63;34.36
20930;BME280;21895;47.072;15.132;2022-08-01T10:07:54;96621.00;;;32.11;35.19
20930;BME280;21895;47.072;15.132;2022-08-01T10:10:24;96619.00;;;31.95;35.18
20930;BME280;21895;47.072;15.132;2022-08-01T10:12:59;96623.00;;;32.10;33.71
20930;BME280;21895;47.072;15.132;2022-08-01T10:15:27;96621.00;;;31.97;35.55
20930;BME280;21895;47.072;15.132;2022-08-01T10:18:06;96624.00;;;31.79;36.42
20930;BME280;21895;47.072;15.132;2022-08-01T10:20:51;96613.00;;;31.63;37.59
20930;BME280;21895;47.072;15.132;2022-08-01T10:23:24;96615.00;;;31.82;37.71
20930;BME280;21895;47.072;15.132;2022-08-01T10:26:08;96614.00;;;32.17;36.53
20930;BME280;21895;47.072;15.132;2022-08-01T10:28:39;96609.00;;;32.47;35.23
20930;BME280;21895;47.072;15.132;2022-08-01T10:31:08;96595.00;;;32.79;33.83
20930;BME280;21895;47.072;15.132;2022-08-01T10:33:40;96608.00;;;33.19;35.68
20930;BME280;21895;47.072;15.132;2022-08-01T10:36:22;96594.00;;;33.63;34.55
20930;BME280;21895;47.072;15.132;2022-08-01T10:38:53;96597.00;;;33.73;32.56
20930;BME280;21895;47.072;15.132;2022-08-01T10:41:21;96617.00;;;33.20;33.01
20930;BME280;21895;47.072;15.132;2022-08-01T10:43:48;96617.00;;;32.54;33.41
20930;BME280;21895;47.072;15.132;2022-08-01T10:46:15;96610.00;;;31.65;35.12
20930;BME280;21895;47.072;15.132;2022-08-01T10:49:02;96610.00;;;32.18;35.76
20930;BME280;21895;47.072;15.132;2022-08-01T10:51:30;96609.00;;;32.95;34.06
20930;BME280;21895;47.072;15.132;2022-08-01T10:54:25;96612.00;;;33.42;31.87
20930;BME280;21895;47.072;15.132;2022-08-01T10:56:52;96600.00;;;33.60;28.00
20930;BME280;21895;47.072;15.132;2022-08-01T10:59:28;96599.00;;;33.51;27.60
20930;BME280;21895;47.072;15.132;2022-08-01T11:02:31;96605.00;;;32.85;28.12
20930;BME280;21895;47.072;15.132;2022-08-01T11:05:11;96593.00;;;32.67;27.84
20930;BME280;21895;47.072;15.132;2022-08-01T11:07:55;96587.00;;;32.77;29.12
20930;BME280;21895;47.072;15.132;2022-08-01T11:10:42;96592.00;;;32.88;30.22
20930;BME280;21895;47.072;15.132;2022-08-01T11:13:09;96584.00;;;33.18;30.85
20930;BME280;21895;47.072;15.132;2022-08-01T11:15:41;96594.00;;;33.16;29.93
20930;BME280;21895;47.072;15.132;2022-08-01T11:19:16;96590.00;;;32.79;29.72
20930;BME280;21895;47.072;15.132;2022-08-01T11:22:20;96592.00;;;32.49;31.42
20930;BME280;21895;47.072;15.132;2022-08-01T11:24:54;96585.00;;;32.48;29.38
20930;BME280;21895;47.072;15.132;2022-08-01T11:27:31;96587.00;;;32.95;29.42
20930;BME280;21895;47.072;15.132;2022-08-01T11:30:22;96586.00;;;33.17;28.10
20930;BME280;21895;47.072;15.132;2022-08-01T11:32:57;96589.00;;;32.25;26.78
20930;BME280;21895;47.072;15.132;2022-08-01T11:36:16;96585.00;;;31.91;27.76
20930;BME280;21895;47.072;15.132;2022-08-01T11:39:12;96580.00;;;31.74;29.09
20930;BME280;21895;47.072;15.132;2022-08-01T11:41:41;96580.00;;;31.85;29.39
20930;BME280;21895;47.072;15.132;2022-08-01T11:44:17;96582.00;;;32.12;28.89
20930;BME280;21895;47.072;15.132;2022-08-01T11:47:05;96574.00;;;32.09;29.12
20930;BME280;21895;47.072;15.132;2022-08-01T11:49:49;96575.00;;;32.13;29.66
20930;BME280;21895;47.072;15.132;2022-08-01T11:52:30;96576.00;;;32.09;31.92
20930;BME280;21895;47.072;15.132;2022-08-01T11:55:07;96582.00;;;32.02;33.13
20930;BME280;21895;47.072;15.132;2022-08-01T11:57:37;96574.00;;;31.95;33.49
20930;BME280;21895;47.072;15.132;2022-08-01T12:00:15;96573.00;;;32.08;30.35
20930;BME280;21895;47.072;15.132;2022-08-01T12:02:57;96575.00;;;32.41;34.14
20930;BME280;21895;47.072;15.132;2022-08-01T12:05:27;96573.00;;;32.92;28.72
20930;BME280;21895;47.072;15.132;2022-08-01T12:07:57;96575.00;;;33.14;27.32
20930;BME280;21895;47.072;15.132;2022-08-01T12:10:33;96571.00;;;32.90;27.45
20930;BME280;21895;47.072;15.132;2022-08-01T12:13:13;96572.00;;;33.10;26.66
20930;BME280;21895;47.072;15.132;2022-08-01T12:15:39;96570.00;;;32.84;26.75
20930;BME280;21895;47.072;15.132;2022-08-01T12:18:09;96564.00;;;33.16;26.57
20930;BME280;21895;47.072;15.132;2022-08-01T12:20:40;96570.00;;;32.98;25.29
20930;BME280;21895;47.072;15.132;2022-08-01T12:23:23;96553.00;;;33.05;24.81
20930;BME280;21895;47.072;15.132;2022-08-01T12:25:52;96556.00;;;33.14;25.63
20930;BME280;21895;47.072;15.132;2022-08-01T12:28:19;96548.00;;;33.27;26.32
20930;BME280;21895;47.072;15.132;2022-08-01T12:30:48;96551.00;;;33.70;24.36
20930;BME280;21895;47.072;15.132;2022-08-01T12:33:19;96541.00;;;34.22;24.50
20930;BME280;21895;47.072;15.132;2022-08-01T12:35:47;96547.00;;;33.90;24.14
20930;BME280;21895;47.072;15.132;2022-08-01T12:38:17;96534.00;;;33.98;25.10
20930;BME280;21895;47.072;15.132;2022-08-01T12:40:47;96531.00;;;34.08;25.09
20930;BME280;21895;47.072;15.132;2022-08-01T12:43:22;96530.00;;;34.31;25.12
20930;BME280;21895;47.072;15.132;2022-08-01T12:45:56;96543.00;;;34.12;23.83
20930;BME280;21895;47.072;15.132;2022-08-01T12:48:25;96542.00;;;32.77;25.55
20930;BME280;21895;47.072;15.132;2022-08-01T12:50:53;96541.00;;;32.48;25.73
20930;BME280;21895;47.072;15.132;2022-08-01T12:53:21;96542.00;;;32.57;26.13
20930;BME280;21895;47.072;15.132;2022-08-01T12:55:54;96547.00;;;32.22;26.40
20930;BME280;21895;47.072;15.132;2022-08-01T12:58:32;96544.00;;;31.90;27.05
20930;BME280;21895;47.072;15.132;2022-08-01T13:01:08;96542.00;;;32.08;28.48
20930;BME280;21895;47.072;15.132;2022-08-01T13:03:35;96542.00;;;32.15;27.30
20930;BME280;21895;47.072;15.132;2022-08-01T13:06:11;96541.00;;;32.02;28.02
20930;BME280;21895;47.072;15.132;2022-08-01T13:08:40;96542.00;;;32.20;28.23
20930;BME280;21895;47.072;15.132;2022-08-01T13:11:10;96536.00;;;32.32;27.51
20930;BME280;21895;47.072;15.132;2022-08-01T13:13:51;96536.00;;;32.09;27.46
20930;BME280;21895;47.072;15.132;2022-08-01T13:16:24;96541.00;;;32.07;27.71
20930;BME280;21895;47.072;15.132;2022-08-01T13:19:09;96530.00;;;32.48;28.27
20930;BME280;21895;47.072;15.132;2022-08-01T13:21:35;96532.00;;;32.42;26.45
20930;BME280;21895;47.072;15.132;2022-08-01T13:24:29;96540.00;;;32.06;26.76
20930;BME280;21895;47.072;15.132;2022-08-01T13:27:02;96535.00;;;31.98;26.89
20930;BME280;21895;47.072;15.132;2022-08-01T13:29:39;96529.00;;;31.96;27.50